Airfield :







YOU CAN JOIN US ON...

 
LOGIN :

Register | Disclaimer

   EN    FR    IT 

 









Legend :    VFR   Marginal VFR   IFR   Intensive IFR   Very Intensive IFR
Visi :
Ceiling :
>= 8 km
>= 3000ft
5 to 8 km
1000 to 3000 ft
1500m to 5 km
500 to 1000 ft
800 to 1500m
200 to 500 ft
< 800m
< 200 ft
Symbols :   Thunderstorms  Fog  Heavy snow  Heavy precipitations  Wind > 20 kt







- Airport Elevation : 68 ft
- IATA code : YFC


CYFC - Fredericton

CURRENT METAR :
  • 210600Z AUTO 14003KT 9SM FEW190 22/21 A2958 RMK SLP017 DENSITY ALT 1300FT

EXPIRED METARs :
  • 210500Z AUTO 14004KT 9SM FEW180 23/21 A2958 RMK SLP019 DENSITY ALT 1300FT
  • 210400Z AUTO 19007KT 9SM CLR 23/20 A2958 RMK SLP019 DENSITY ALT 1400FT

TAF TAF CYFC
Valid from the 21 at 06:00 until the 21 at 18:00 UTC


210539Z 2106/2118 VRB03KT P6SM FEW060
TEMPO 2106/2108 BKN060
FM211500 16005KT P6SM -SHRA FEW020 BKN060
PROB30 2115/2118 2SM TSRA BR FEW008 BKN020 OVC060CB RMK FCST BASED ON AUTO OBS. NXT FCST BY 211200Z
CZQM FIR / North America



MET'MAP, your aeronautical weather chart ! - Copyright ORBIFLY December 2007 - Disclaimer

ORBIFLY MET'MAP TEAM :

Programming & Development : Alexandra Zaïnal
Concept & Development : Baudouin d'Aumeries
Co-Development & Prog : Marc-Olivier Méhu
Technical & hardware support : Manuel Goepfert

Contact : metmap@orbifly.com




SOURCES & CREDITS :

   NOAA